CheckWX is a tool to help pilots better visualize weather data.  It is not intended as a substitute for an official pre-flight weather briefing.

00:29:09 UTC

KAAO METAR
Colonel James Jabara Airport
Wichita, Kansas, USA
Current

35 mins ago

KAAO 242354Z AUTO 16007KT 10SM CLR 19/11 A2982 RMK AO2 SLP096 T01940111 10217 20172 56003 TSNO
Observed
Apr-24 @ 23:54 UTC
Wind
  • 160° at 7 KTS
Visibility
10 SM
Flight Rules
VFR
Cloud Levels
  • Clear skies
Temperature
19°C / 66°F
Dewpoint
11°C / 52°F
Humidity
60%
Altimeter
29.82" Hg
Pressure
1009.82 hPa
Previous

2 hours ago

KAAO 242254Z AUTO 17005KT 10SM FEW042 21/11 A2982 RMK AO2 SLP095 T02060106 TSNO
Observed
Apr-24 @ 22:54 UTC
Wind
  • 170° at 5 KTS
Visibility
10 SM
Flight Rules
VFR
Cloud Levels
  • Few at 4,200' AGL
Temperature
21°C / 70°F
Dewpoint
11°C / 52°F
Humidity
53%
Altimeter
29.82" Hg
Pressure
1009.82 hPa
Previous

3 hours ago

KAAO 242154Z AUTO 22006KT 10SM FEW042 21/10 A2982 RMK AO2 SLP093 T02060100 TSNO
Observed
Apr-24 @ 21:54 UTC
Wind
  • 220° at 6 KTS
Visibility
10 SM
Flight Rules
VFR
Cloud Levels
  • Few at 4,200' AGL
Temperature
21°C / 70°F
Dewpoint
10°C / 50°F
Humidity
50%
Altimeter
29.82" Hg
Pressure
1009.82 hPa